sensor_id;sensor_type;location;lat;lon;timestamp;pressure;altitude;pressure_sealevel;temperature;humidity
52625;BME280;38519;52.540;13.410;2023-06-24T00:01:57;98291.75;;;8.30;100.00
52625;BME280;38519;52.540;13.410;2023-06-24T00:04:22;98288.88;;;8.24;100.00
52625;BME280;38519;52.540;13.410;2023-06-24T00:06:48;98287.03;;;8.21;100.00
52625;BME280;38519;52.540;13.410;2023-06-24T00:09:13;98296.34;;;8.16;100.00
52625;BME280;38519;52.540;13.410;2023-06-24T00:11:39;98305.72;;;8.13;100.00
52625;BME280;38519;52.540;13.410;2023-06-24T00:14:04;98302.56;;;8.20;100.00
52625;BME280;38519;52.540;13.410;2023-06-24T00:16:31;98300.53;;;8.13;100.00
52625;BME280;38519;52.540;13.410;2023-06-24T00:18:57;98308.31;;;8.13;100.00
52625;BME280;38519;52.540;13.410;2023-06-24T00:21:26;98301.34;;;8.12;100.00
52625;BME280;38519;52.540;13.410;2023-06-24T00:23:58;98302.03;;;8.08;100.00
52625;BME280;38519;52.540;13.410;2023-06-24T00:26:24;98308.06;;;8.07;100.00
52625;BME280;38519;52.540;13.410;2023-06-24T00:28:50;98309.56;;;8.01;100.00
52625;BME280;38519;52.540;13.410;2023-06-24T00:31:15;98311.22;;;7.99;100.00
52625;BME280;38519;52.540;13.410;2023-06-24T00:33:40;98310.31;;;7.99;100.00
52625;BME280;38519;52.540;13.410;2023-06-24T00:36:06;98306.84;;;7.98;100.00
52625;BME280;38519;52.540;13.410;2023-06-24T00:38:37;98311.16;;;7.98;100.00
52625;BME280;38519;52.540;13.410;2023-06-24T00:41:02;98313.03;;;8.02;100.00
52625;BME280;38519;52.540;13.410;2023-06-24T00:43:27;98307.97;;;8.05;100.00
52625;BME280;38519;52.540;13.410;2023-06-24T00:45:54;98313.97;;;8.02;100.00
52625;BME280;38519;52.540;13.410;2023-06-24T00:48:20;98315.44;;;7.97;100.00
52625;BME280;38519;52.540;13.410;2023-06-24T00:50:46;98307.31;;;7.90;100.00
52625;BME280;38519;52.540;13.410;2023-06-24T00:53:14;98308.06;;;7.87;100.00
52625;BME280;38519;52.540;13.410;2023-06-24T00:55:39;98306.41;;;7.89;100.00
52625;BME280;38519;52.540;13.410;2023-06-24T00:58:04;98314.22;;;7.89;100.00
52625;BME280;38519;52.540;13.410;2023-06-24T01:00:30;98316.00;;;7.90;100.00
52625;BME280;38519;52.540;13.410;2023-06-24T01:02:57;98309.72;;;7.85;100.00
52625;BME280;38519;52.540;13.410;2023-06-24T01:05:25;98314.69;;;7.80;100.00
52625;BME280;38519;52.540;13.410;2023-06-24T01:07:52;98318.91;;;7.78;100.00
52625;BME280;38519;52.540;13.410;2023-06-24T01:10:20;98319.81;;;7.79;100.00
52625;BME280;38519;52.540;13.410;2023-06-24T01:12:47;98310.38;;;7.81;100.00
52625;BME280;38519;52.540;13.410;2023-06-24T01:15:12;98314.91;;;7.85;100.00
52625;BME280;38519;52.540;13.410;2023-06-24T01:17:59;98308.53;;;7.78;100.00
52625;BME280;38519;52.540;13.410;2023-06-24T01:21:10;98303.88;;;7.71;100.00
52625;BME280;38519;52.540;13.410;2023-06-24T01:30:58;98298.34;;;7.63;100.00
52625;BME280;38519;52.540;13.410;2023-06-24T01:33:55;98299.22;;;7.64;100.00
52625;BME280;38519;52.540;13.410;2023-06-24T01:36:18;98299.22;;;7.64;100.00
52625;BME280;38519;52.540;13.410;2023-06-24T01:38:48;98298.19;;;7.60;100.00
52625;BME280;38519;52.540;13.410;2023-06-24T01:41:18;98301.63;;;7.59;100.00
52625;BME280;38519;52.540;13.410;2023-06-24T01:43:46;98290.97;;;7.53;100.00
52625;BME280;38519;52.540;13.410;2023-06-24T01:46:12;98298.69;;;7.52;100.00
52625;BME280;38519;52.540;13.410;2023-06-24T01:48:38;98296.97;;;7.52;100.00
52625;BME280;38519;52.540;13.410;2023-06-24T01:51:08;98293.28;;;7.47;100.00
52625;BME280;38519;52.540;13.410;2023-06-24T01:53:40;98293.94;;;7.43;100.00
52625;BME280;38519;52.540;13.410;2023-06-24T01:56:08;98299.13;;;7.43;100.00
52625;BME280;38519;52.540;13.410;2023-06-24T01:58:35;98292.19;;;7.42;100.00
52625;BME280;38519;52.540;13.410;2023-06-24T02:01:01;98292.75;;;7.36;100.00
52625;BME280;38519;52.540;13.410;2023-06-24T02:03:27;98288.50;;;7.37;100.00
52625;BME280;38519;52.540;13.410;2023-06-24T02:05:52;98292.69;;;7.35;100.00
52625;BME280;38519;52.540;13.410;2023-06-24T02:08:19;98287.44;;;7.33;100.00
52625;BME280;38519;52.540;13.410;2023-06-24T02:10:53;98289.50;;;7.40;100.00
52625;BME280;38519;52.540;13.410;2023-06-24T02:13:20;98289.94;;;7.32;100.00
52625;BME280;38519;52.540;13.410;2023-06-24T02:15:46;98295.63;;;7.23;100.00
52625;BME280;38519;52.540;13.410;2023-06-24T02:18:12;98295.91;;;7.29;100.00
52625;BME280;38519;52.540;13.410;2023-06-24T02:20:41;98291.38;;;7.25;100.00
52625;BME280;38519;52.540;13.410;2023-06-24T02:23:08;98284.53;;;7.27;100.00
52625;BME280;38519;52.540;13.410;2023-06-24T02:25:34;98284.13;;;7.18;100.00
52625;BME280;38519;52.540;13.410;2023-06-24T02:28:04;98283.31;;;7.19;100.00
52625;BME280;38519;52.540;13.410;2023-06-24T02:30:30;98285.91;;;7.19;100.00
52625;BME280;38519;52.540;13.410;2023-06-24T02:32:55;98282.19;;;7.14;100.00
52625;BME280;38519;52.540;13.410;2023-06-24T02:35:21;98283.47;;;7.04;100.00
52625;BME280;38519;52.540;13.410;2023-06-24T02:37:47;98278.13;;;7.01;100.00
52625;BME280;38519;52.540;13.410;2023-06-24T02:40:12;98285.78;;;6.98;100.00
52625;BME280;38519;52.540;13.410;2023-06-24T02:42:37;98294.09;;;6.90;100.00
52625;BME280;38519;52.540;13.410;2023-06-24T02:45:03;98295.53;;;6.85;100.00
52625;BME280;38519;52.540;13.410;2023-06-24T02:47:29;98292.84;;;6.82;100.00
52625;BME280;38519;52.540;13.410;2023-06-24T02:49:55;98293.63;;;6.81;100.00
52625;BME280;38519;52.540;13.410;2023-06-24T02:52:22;98296.38;;;6.84;100.00
52625;BME280;38519;52.540;13.410;2023-06-24T02:54:48;98300.63;;;6.82;100.00
52625;BME280;38519;52.540;13.410;2023-06-24T02:57:16;98310.00;;;6.80;100.00
52625;BME280;38519;52.540;13.410;2023-06-24T02:59:41;98303.88;;;6.78;100.00
52625;BME280;38519;52.540;13.410;2023-06-24T03:02:07;98311.34;;;6.72;100.00
52625;BME280;38519;52.540;13.410;2023-06-24T03:04:32;98311.34;;;6.72;100.00
52625;BME280;38519;52.540;13.410;2023-06-24T03:06:58;98312.38;;;6.75;100.00
52625;BME280;38519;52.540;13.410;2023-06-24T03:09:26;98310.75;;;6.78;100.00
52625;BME280;38519;52.540;13.410;2023-06-24T03:11:51;98313.44;;;6.79;100.00
52625;BME280;38519;52.540;13.410;2023-06-24T03:14:17;98323.97;;;6.82;100.00
52625;BME280;38519;52.540;13.410;2023-06-24T03:16:42;98321.38;;;6.82;100.00
52625;BME280;38519;52.540;13.410;2023-06-24T03:19:07;98321.38;;;6.82;100.00
52625;BME280;38519;52.540;13.410;2023-06-24T03:21:33;98325.88;;;6.86;100.00
52625;BME280;38519;52.540;13.410;2023-06-24T03:23:58;98328.53;;;6.88;100.00
52625;BME280;38519;52.540;13.410;2023-06-24T03:26:30;98325.00;;;6.86;100.00
52625;BME280;38519;52.540;13.410;2023-06-24T03:28:56;98329.22;;;6.84;100.00
52625;BME280;38519;52.540;13.410;2023-06-24T03:31:21;98331.75;;;6.82;100.00
52625;BME280;38519;52.540;13.410;2023-06-24T03:33:48;98333.03;;;6.74;100.00
52625;BME280;38519;52.540;13.410;2023-06-24T03:36:13;98326.19;;;6.74;100.00
52625;BME280;38519;52.540;13.410;2023-06-24T03:38:39;98333.28;;;6.79;100.00
52625;BME280;38519;52.540;13.410;2023-06-24T03:41:04;98330.44;;;6.74;100.00
52625;BME280;38519;52.540;13.410;2023-06-24T03:43:29;98337.88;;;6.66;100.00
52625;BME280;38519;52.540;13.410;2023-06-24T03:45:54;98341.63;;;6.55;100.00
52625;BME280;38519;52.540;13.410;2023-06-24T03:48:20;98339.84;;;6.54;100.00
52625;BME280;38519;52.540;13.410;2023-06-24T03:50:45;98337.72;;;6.47;100.00
52625;BME280;38519;52.540;13.410;2023-06-24T03:53:10;98340.13;;;6.42;100.00
52625;BME280;38519;52.540;13.410;2023-06-24T03:55:36;98334.09;;;6.43;100.00
52625;BME280;38519;52.540;13.410;2023-06-24T03:58:01;98328.28;;;6.47;100.00
52625;BME280;38519;52.540;13.410;2023-06-24T04:00:27;98340.19;;;6.44;100.00
52625;BME280;38519;52.540;13.410;2023-06-24T04:02:52;98348.56;;;6.56;100.00
52625;BME280;38519;52.540;13.410;2023-06-24T04:05:19;98344.81;;;6.67;100.00
52625;BME280;38519;52.540;13.410;2023-06-24T04:07:44;98351.00;;;6.69;100.00
52625;BME280;38519;52.540;13.410;2023-06-24T04:10:13;98344.66;;;6.64;100.00
52625;BME280;38519;52.540;13.410;2023-06-24T04:12:39;98351.41;;;6.61;100.00
52625;BME280;38519;52.540;13.410;2023-06-24T04:15:04;98335.22;;;6.48;100.00
52625;BME280;38519;52.540;13.410;2023-06-24T04:17:30;98332.28;;;6.41;100.00
52625;BME280;38519;52.540;13.410;2023-06-24T04:19:55;98342.41;;;6.36;100.00
52625;BME280;38519;52.540;13.410;2023-06-24T04:22:21;98338.53;;;6.28;100.00
52625;BME280;38519;52.540;13.410;2023-06-24T04:24:46;98346.63;;;6.17;100.00
52625;BME280;38519;52.540;13.410;2023-06-24T04:27:11;98352.84;;;6.21;100.00
52625;BME280;38519;52.540;13.410;2023-06-24T04:29:36;98351.00;;;6.18;100.00
52625;BME280;38519;52.540;13.410;2023-06-24T04:32:02;98355.69;;;6.26;100.00
52625;BME280;38519;52.540;13.410;2023-06-24T04:34:27;98356.59;;;6.26;100.00
52625;BME280;38519;52.540;13.410;2023-06-24T04:36:52;98365.41;;;6.30;100.00
52625;BME280;38519;52.540;13.410;2023-06-24T04:39:17;98365.25;;;6.27;100.00
52625;BME280;38519;52.540;13.410;2023-06-24T04:41:43;98365.31;;;6.28;100.00
52625;BME280;38519;52.540;13.410;2023-06-24T04:44:08;98358.19;;;6.41;100.00
52625;BME280;38519;52.540;13.410;2023-06-24T04:46:33;98361.66;;;6.41;100.00
52625;BME280;38519;52.540;13.410;2023-06-24T04:49:00;98355.75;;;6.44;100.00
52625;BME280;38519;52.540;13.410;2023-06-24T04:51:26;98357.91;;;6.52;100.00
52625;BME280;38519;52.540;13.410;2023-06-24T04:53:51;98367.75;;;6.60;100.00
52625;BME280;38519;52.540;13.410;2023-06-24T04:56:16;98364.28;;;6.59;100.00
52625;BME280;38519;52.540;13.410;2023-06-24T04:58:43;98369.25;;;6.54;100.00
52625;BME280;38519;52.540;13.410;2023-06-24T05:01:08;98367.63;;;6.56;100.00
52625;BME280;38519;52.540;13.410;2023-06-24T05:03:34;98377.66;;;6.67;100.00
52625;BME280;38519;52.540;13.410;2023-06-24T05:05:59;98377.13;;;6.74;100.00
52625;BME280;38519;52.540;13.410;2023-06-24T05:08:24;98389.22;;;6.73;100.00
52625;BME280;38519;52.540;13.410;2023-06-24T05:10:49;98382.03;;;6.68;100.00
52625;BME280;38519;52.540;13.410;2023-06-24T05:13:15;98386.78;;;6.77;100.00
52625;BME280;38519;52.540;13.410;2023-06-24T05:15:40;98373.00;;;6.78;100.00
52625;BME280;38519;52.540;13.410;2023-06-24T05:18:06;98377.28;;;6.77;100.00
52625;BME280;38519;52.540;13.410;2023-06-24T05:20:31;98380.13;;;6.82;100.00
52625;BME280;38519;52.540;13.410;2023-06-24T05:22:57;98379.69;;;6.90;100.00
52625;BME280;38519;52.540;13.410;2023-06-24T05:25:23;98386.66;;;6.91;100.00
52625;BME280;38519;52.540;13.410;2023-06-24T05:27:48;98385.03;;;6.93;100.00
52625;BME280;38519;52.540;13.410;2023-06-24T05:30:14;98377.47;;;6.98;100.00
52625;BME280;38519;52.540;13.410;2023-06-24T05:32:39;98376.88;;;7.04;100.00
52625;BME280;38519;52.540;13.410;2023-06-24T05:35:05;98378.75;;;7.06;100.00
52625;BME280;38519;52.540;13.410;2023-06-24T05:37:30;98384.38;;;7.16;100.00
52625;BME280;38519;52.540;13.410;2023-06-24T05:39:55;98388.19;;;7.22;100.00
52625;BME280;38519;52.540;13.410;2023-06-24T05:42:22;98393.50;;;7.25;100.00
52625;BME280;38519;52.540;13.410;2023-06-24T05:44:48;98390.91;;;7.25;100.00
52625;BME280;38519;52.540;13.410;2023-06-24T05:47:14;98398.56;;;7.22;100.00
52625;BME280;38519;52.540;13.410;2023-06-24T05:49:40;98398.91;;;7.30;100.00
52625;BME280;38519;52.540;13.410;2023-06-24T05:52:05;98404.84;;;7.45;100.00
52625;BME280;38519;52.540;13.410;2023-06-24T05:54:30;98406.03;;;7.52;100.00
52625;BME280;38519;52.540;13.410;2023-06-24T05:56:56;98394.22;;;7.59;100.00
52625;BME280;38519;52.540;13.410;2023-06-24T05:59:21;98400.22;;;7.76;100.00
52625;BME280;38519;52.540;13.410;2023-06-24T06:01:46;98409.06;;;7.99;100.00
52625;BME280;38519;52.540;13.410;2023-06-24T06:04:12;98411.50;;;8.14;100.00
52625;BME280;38519;52.540;13.410;2023-06-24T06:06:37;98406.41;;;8.17;100.00
52625;BME280;38519;52.540;13.410;2023-06-24T06:09:02;98411.81;;;8.02;100.00
52625;BME280;38519;52.540;13.410;2023-06-24T06:11:27;98404.88;;;7.83;100.00
52625;BME280;38519;52.540;13.410;2023-06-24T06:13:53;98397.41;;;7.71;100.00
52625;BME280;38519;52.540;13.410;2023-06-24T06:16:18;98393.78;;;7.68;100.00
52625;BME280;38519;52.540;13.410;2023-06-24T06:18:43;98392.38;;;7.56;100.00
52625;BME280;38519;52.540;13.410;2023-06-24T06:21:09;98382.59;;;7.51;100.00
52625;BME280;38519;52.540;13.410;2023-06-24T06:23:34;98392.13;;;7.70;100.00
52625;BME280;38519;52.540;13.410;2023-06-24T06:25:59;98398.72;;;7.81;100.00
52625;BME280;38519;52.540;13.410;2023-06-24T06:28:24;98398.66;;;7.79;100.00
52625;BME280;38519;52.540;13.410;2023-06-24T06:30:50;98398.31;;;7.91;100.00
52625;BME280;38519;52.540;13.410;2023-06-24T06:33:15;98403.28;;;8.05;100.00
52625;BME280;38519;52.540;13.410;2023-06-24T06:35:40;98396.56;;;8.10;100.00
52625;BME280;38519;52.540;13.410;2023-06-24T06:38:05;98397.94;;;8.21;100.00
52625;BME280;38519;52.540;13.410;2023-06-24T06:40:31;98402.03;;;8.35;100.00
52625;BME280;38519;52.540;13.410;2023-06-24T06:42:56;98404.91;;;8.42;100.00
52625;BME280;38519;52.540;13.410;2023-06-24T06:45:21;98409.66;;;8.50;100.00
52625;BME280;38519;52.540;13.410;2023-06-24T06:47:47;98410.78;;;8.55;100.00
52625;BME280;38519;52.540;13.410;2023-06-24T06:50:12;98405.75;;;8.60;100.00
52625;BME280;38519;52.540;13.410;2023-06-24T06:52:38;98401.25;;;8.56;100.00
52625;BME280;38519;52.540;13.410;2023-06-24T06:55:03;98411.34;;;8.69;100.00
52625;BME280;38519;52.540;13.410;2023-06-24T06:57:29;98409.97;;;8.78;100.00
52625;BME280;38519;52.540;13.410;2023-06-24T06:59:55;98403.28;;;8.84;100.00
52625;BME280;38519;52.540;13.410;2023-06-24T07:02:21;98403.50;;;8.89;100.00
52625;BME280;38519;52.540;13.410;2023-06-24T07:04:46;98395.88;;;8.72;100.00
52625;BME280;38519;52.540;13.410;2023-06-24T07:07:13;98399.88;;;8.85;100.00
52625;BME280;38519;52.540;13.410;2023-06-24T07:09:38;98399.28;;;8.91;100.00
52625;BME280;38519;52.540;13.410;2023-06-24T07:12:03;98403.69;;;8.93;100.00
52625;BME280;38519;52.540;13.410;2023-06-24T07:14:29;98395.41;;;9.02;100.00
52625;BME280;38519;52.540;13.410;2023-06-24T07:16:54;98400.91;;;9.10;100.00
52625;BME280;38519;52.540;13.410;2023-06-24T07:19:19;98401.94;;;9.14;100.00
52625;BME280;38519;52.540;13.410;2023-06-24T07:21:45;98410.63;;;9.14;100.00
52625;BME280;38519;52.540;13.410;2023-06-24T07:24:10;98414.47;;;9.45;100.00
52625;BME280;38519;52.540;13.410;2023-06-24T07:26:35;98414.25;;;9.61;100.00
52625;BME280;38519;52.540;13.410;2023-06-24T07:29:00;98425.34;;;9.78;100.00
52625;BME280;38519;52.540;13.410;2023-06-24T07:31:26;98434.97;;;9.79;100.00
52625;BME280;38519;52.540;13.410;2023-06-24T07:33:51;98429.44;;;9.72;100.00
52625;BME280;38519;52.540;13.410;2023-06-24T07:36:16;98432.22;;;9.76;100.00
52625;BME280;38519;52.540;13.410;2023-06-24T07:38:42;98436.13;;;9.65;100.00
52625;BME280;38519;52.540;13.410;2023-06-24T07:41:07;98435.09;;;9.61;100.00
52625;BME280;38519;52.540;13.410;2023-06-24T07:43:32;98434.97;;;9.79;100.00
52625;BME280;38519;52.540;13.410;2023-06-24T07:45:57;98432.75;;;9.90;100.00
52625;BME280;38519;52.540;13.410;2023-06-24T07:48:23;98433.16;;;10.01;100.00
52625;BME280;38519;52.540;13.410;2023-06-24T07:50:48;98431.72;;;10.09;100.00
52625;BME280;38519;52.540;13.410;2023-06-24T07:53:14;98440.53;;;10.11;100.00
52625;BME280;38519;52.540;13.410;2023-06-24T07:55:39;98447.25;;;10.06;100.00
52625;BME280;38519;52.540;13.410;2023-06-24T07:58:04;98445.31;;;10.23;100.00
52625;BME280;38519;52.540;13.410;2023-06-24T08:00:30;98447.97;;;10.25;100.00
52625;BME280;38519;52.540;13.410;2023-06-24T08:02:56;98452.25;;;10.23;100.00
52625;BME280;38519;52.540;13.410;2023-06-24T08:05:22;98445.94;;;10.17;100.00
52625;BME280;38519;52.540;13.410;2023-06-24T08:07:47;98445.31;;;10.23;100.00
52625;BME280;38519;52.540;13.410;2023-06-24T08:10:13;98444.53;;;10.48;100.00
52625;BME280;38519;52.540;13.410;2023-06-24T08:12:38;98446.28;;;10.49;100.00
52625;BME280;38519;52.540;13.410;2023-06-24T08:15:04;98445.00;;;10.38;100.00
52625;BME280;38519;52.540;13.410;2023-06-24T08:17:29;98444.75;;;10.32;100.00
52625;BME280;38519;52.540;13.410;2023-06-24T08:19:54;98452.47;;;10.29;100.00
52625;BME280;38519;52.540;13.410;2023-06-24T08:22:20;98448.72;;;10.22;100.00
52625;BME280;38519;52.540;13.410;2023-06-24T08:24:45;98452.97;;;10.41;100.00
52625;BME280;38519;52.540;13.410;2023-06-24T08:27:10;98453.19;;;10.47;100.00
52625;BME280;38519;52.540;13.410;2023-06-24T08:29:35;98459.69;;;10.59;100.00
52625;BME280;38519;52.540;13.410;2023-06-24T08:32:03;98466.75;;;10.61;100.00
52625;BME280;38519;52.540;13.410;2023-06-24T08:34:28;98458.53;;;10.74;100.00
52625;BME280;38519;52.540;13.410;2023-06-24T08:36:53;98458.47;;;10.73;100.00
52625;BME280;38519;52.540;13.410;2023-06-24T08:39:18;98461.31;;;10.79;100.00
52625;BME280;38519;52.540;13.410;2023-06-24T08:41:44;98458.13;;;10.88;100.00
52625;BME280;38519;52.540;13.410;2023-06-24T08:44:09;98459.31;;;10.98;100.00
52625;BME280;38519;52.540;13.410;2023-06-24T08:46:34;98461.00;;;11.21;100.00
52625;BME280;38519;52.540;13.410;2023-06-24T08:51:44;98465.19;;;10.90;100.00
52625;BME280;38519;52.540;13.410;2023-06-24T08:54:13;98467.56;;;10.84;100.00
52625;BME280;38519;52.540;13.410;2023-06-24T08:56:39;98455.19;;;10.79;100.00
52625;BME280;38519;52.540;13.410;2023-06-24T08:59:06;98456.78;;;10.75;100.00
52625;BME280;38519;52.540;13.410;2023-06-24T09:01:31;98458.34;;;10.70;100.00
52625;BME280;38519;52.540;13.410;2023-06-24T09:03:56;98466.97;;;10.91;100.00
52625;BME280;38519;52.540;13.410;2023-06-24T09:06:23;98472.72;;;11.33;100.00
52625;BME280;38519;52.540;13.410;2023-06-24T09:08:55;98470.91;;;11.30;100.00
52625;BME280;38519;52.540;13.410;2023-06-24T09:11:25;98463.19;;;11.35;100.00
52625;BME280;38519;52.540;13.410;2023-06-24T09:13:55;98464.75;;;11.04;100.00
52625;BME280;38519;52.540;13.410;2023-06-24T09:16:24;98472.50;;;11.26;100.00
52625;BME280;38519;52.540;13.410;2023-06-24T09:18:50;98464.31;;;11.41;100.00
52625;BME280;38519;52.540;13.410;2023-06-24T09:21:22;98465.34;;;11.74;100.00
52625;BME280;38519;52.540;13.410;2023-06-24T09:23:51;98472.34;;;12.02;100.00
52625;BME280;38519;52.540;13.410;2023-06-24T09:26:17;98468.66;;;11.95;100.00
52625;BME280;38519;52.540;13.410;2023-06-24T09:28:46;98472.25;;;11.99;100.00
52625;BME280;38519;52.540;13.410;2023-06-24T09:31:12;98476.13;;;12.12;100.00
52625;BME280;38519;52.540;13.410;2023-06-24T09:33:37;98470.91;;;12.12;100.00
52625;BME280;38519;52.540;13.410;2023-06-24T09:36:04;98463.88;;;11.82;100.00
52625;BME280;38519;52.540;13.410;2023-06-24T09:38:34;98463.97;;;11.85;93.55
52625;BME280;38519;52.540;13.410;2023-06-24T09:41:03;98457.03;;;11.87;93.07
52625;BME280;38519;52.540;13.410;2023-06-24T09:43:29;98453.56;;;11.87;97.70
52625;BME280;38519;52.540;13.410;2023-06-24T09:45:55;98453.47;;;11.83;96.43
52625;BME280;38519;52.540;13.410;2023-06-24T09:48:20;98461.25;;;11.82;97.24
52625;BME280;38519;52.540;13.410;2023-06-24T09:50:45;98469.41;;;11.91;98.13
52625;BME280;38519;52.540;13.410;2023-06-24T09:53:11;98457.75;;;11.81;96.66
52625;BME280;38519;52.540;13.410;2023-06-24T09:55:37;98455.19;;;11.83;96.44
52625;BME280;38519;52.540;13.410;2023-06-24T09:58:08;98454.34;;;11.84;94.05
52625;BME280;38519;52.540;13.410;2023-06-24T10:00:34;98456.28;;;11.90;100.00
52625;BME280;38519;52.540;13.410;2023-06-24T10:02:59;98456.28;;;11.90;92.27
52625;BME280;38519;52.540;13.410;2023-06-24T10:05:24;98455.72;;;11.73;89.91
52625;BME280;38519;52.540;13.410;2023-06-24T10:07:50;98447.81;;;11.71;91.22
52625;BME280;38519;52.540;13.410;2023-06-24T10:10:15;98444.94;;;11.91;88.97
52625;BME280;38519;52.540;13.410;2023-06-24T10:12:40;98440.50;;;12.15;90.87
52625;BME280;38519;52.540;13.410;2023-06-24T10:15:07;98441.53;;;12.20;88.14
52625;BME280;38519;52.540;13.410;2023-06-24T10:17:32;98437.09;;;12.18;90.68
52625;BME280;38519;52.540;13.410;2023-06-24T10:19:58;98447.19;;;12.34;85.58
52625;BME280;38519;52.540;13.410;2023-06-24T10:22:23;98442.78;;;12.33;87.52
52625;BME280;38519;52.540;13.410;2023-06-24T10:24:53;98435.16;;;12.41;90.06
52625;BME280;38519;52.540;13.410;2023-06-24T10:27:22;98435.88;;;12.67;91.16
52625;BME280;38519;52.540;13.410;2023-06-24T10:29:51;98432.44;;;12.68;89.22
52625;BME280;38519;52.540;13.410;2023-06-24T10:32:18;98440.69;;;12.84;88.92
52625;BME280;38519;52.540;13.410;2023-06-24T10:34:44;98437.47;;;12.92;88.19
52625;BME280;38519;52.540;13.410;2023-06-24T10:39:48;98430.03;;;12.78;91.45
52625;BME280;38519;52.540;13.410;2023-06-24T10:44:48;98427.50;;;12.81;88.85
52625;BME280;38519;52.540;13.410;2023-06-24T10:47:14;98437.94;;;12.79;90.37
52625;BME280;38519;52.540;13.410;2023-06-24T10:49:40;98422.56;;;12.91;89.13
52625;BME280;38519;52.540;13.410;2023-06-24T10:52:09;98418.31;;;13.30;94.19
52625;BME280;38519;52.540;13.410;2023-06-24T10:54:34;98422.28;;;13.14;86.99
52625;BME280;38519;52.540;13.410;2023-06-24T10:57:01;98426.03;;;12.89;89.24
52625;BME280;38519;52.540;13.410;2023-06-24T10:59:26;98421.13;;;13.03;89.18
52625;BME280;38519;52.540;13.410;2023-06-24T11:01:55;98421.09;;;13.35;88.83
52625;BME280;38519;52.540;13.410;2023-06-24T11:04:20;98408.34;;;13.48;89.82
52625;BME280;38519;52.540;13.410;2023-06-24T11:07:01;98423.72;;;13.71;87.13
52625;BME280;38519;52.540;13.410;2023-06-24T11:09:27;98439.75;;;13.85;84.06
52625;BME280;38519;52.540;13.410;2023-06-24T11:11:52;98420.53;;;13.84;84.31
52625;BME280;38519;52.540;13.410;2023-06-24T11:14:19;98436.47;;;13.94;86.61
52625;BME280;38519;52.540;13.410;2023-06-24T11:16:47;98432.59;;;14.16;84.62
52625;BME280;38519;52.540;13.410;2023-06-24T11:19:14;98433.75;;;14.29;80.84
52625;BME280;38519;52.540;13.410;2023-06-24T11:21:39;98431.84;;;14.21;85.63
52625;BME280;38519;52.540;13.410;2023-06-24T11:24:05;98424.22;;;13.93;82.65
52625;BME280;38519;52.540;13.410;2023-06-24T11:26:31;98428.41;;;13.84;84.35
52625;BME280;38519;52.540;13.410;2023-06-24T11:28:57;98437.22;;;13.88;83.31
52625;BME280;38519;52.540;13.410;2023-06-24T11:31:25;98427.09;;;14.03;87.47
52625;BME280;38519;52.540;13.410;2023-06-24T11:33:50;98422.84;;;14.10;81.26
52625;BME280;38519;52.540;13.410;2023-06-24T11:36:17;98432.03;;;14.31;79.74
52625;BME280;38519;52.540;13.410;2023-06-24T11:38:45;98430.03;;;14.17;73.28
52625;BME280;38519;52.540;13.410;2023-06-24T11:41:10;98429.19;;;14.20;76.33
52625;BME280;38519;52.540;13.410;2023-06-24T11:43:36;98424.69;;;14.14;73.86
52625;BME280;38519;52.540;13.410;2023-06-24T11:46:01;98415.75;;;14.47;71.63
52625;BME280;38519;52.540;13.410;2023-06-24T11:48:29;98423.22;;;14.70;70.27
52625;BME280;38519;52.540;13.410;2023-06-24T11:50:54;98418.34;;;14.88;73.92
52625;BME280;38519;52.540;13.410;2023-06-24T11:56:05;98416.19;;;15.15;69.24
52625;BME280;38519;52.540;13.410;2023-06-24T11:58:33;98423.13;;;15.11;69.11
52625;BME280;38519;52.540;13.410;2023-06-24T12:00:59;98417.06;;;15.17;69.48
52625;BME280;38519;52.540;13.410;2023-06-24T12:03:24;98412.00;;;15.27;67.39
52625;BME280;38519;52.540;13.410;2023-06-24T12:05:50;98410.19;;;15.22;67.80
52625;BME280;38519;52.540;13.410;2023-06-24T12:08:15;98412.69;;;15.14;67.36
52625;BME280;38519;52.540;13.410;2023-06-24T12:10:40;98404.81;;;15.16;66.41
52625;BME280;38519;52.540;13.410;2023-06-24T12:13:06;98409.47;;;15.32;67.12
52625;BME280;38519;52.540;13.410;2023-06-24T12:15:32;98403.03;;;15.15;65.30
52625;BME280;38519;52.540;13.410;2023-06-24T12:17:57;98400.16;;;14.99;68.13
52625;BME280;38519;52.540;13.410;2023-06-24T12:20:24;98408.44;;;15.22;72.98
52625;BME280;38519;52.540;13.410;2023-06-24T12:22:51;98400.84;;;15.42;66.03
52625;BME280;38519;52.540;13.410;2023-06-24T12:25:17;98401.00;;;15.50;64.19
52625;BME280;38519;52.540;13.410;2023-06-24T12:27:43;98403.63;;;15.50;66.92
52625;BME280;38519;52.540;13.410;2023-06-24T12:30:09;98417.50;;;15.96;64.10
52625;BME280;38519;52.540;13.410;2023-06-24T12:32:34;98408.56;;;16.49;70.30
52625;BME280;38519;52.540;13.410;2023-06-24T12:34:59;98412.78;;;17.13;62.72
52625;BME280;38519;52.540;13.410;2023-06-24T12:37:25;98408.69;;;17.47;56.03
52625;BME280;38519;52.540;13.410;2023-06-24T12:39:50;98404.50;;;17.73;55.74
52625;BME280;38519;52.540;13.410;2023-06-24T12:42:18;98409.50;;;17.39;50.95
52625;BME280;38519;52.540;13.410;2023-06-24T12:44:44;98406.59;;;17.06;51.33
52625;BME280;38519;52.540;13.410;2023-06-24T12:47:09;98410.91;;;17.03;50.52
52625;BME280;38519;52.540;13.410;2023-06-24T12:49:34;98409.28;;;17.14;50.25
52625;BME280;38519;52.540;13.410;2023-06-24T12:52:00;98409.06;;;17.95;52.48
52625;BME280;38519;52.540;13.410;2023-06-24T12:54:26;98417.09;;;18.18;50.45
52625;BME280;38519;52.540;13.410;2023-06-24T12:56:54;98414.44;;;18.06;48.52
52625;BME280;38519;52.540;13.410;2023-06-24T12:59:19;98408.84;;;17.66;50.82
52625;BME280;38519;52.540;13.410;2023-06-24T13:01:45;98412.50;;;17.83;48.83